TVF70VW LGMK-LFPO
Flight info
| Callsign | TVF70VW |
|---|---|
| Flight time | N/A |
| Altitude | 36000 |
| Route | KEA UN132 ROPOX UM749 SKP UL617 TSL DCT TALAS DCT ENFAR DCT POD DCT ANEDI DCT NUPSO DCT ULPIN DCT PEVAL DCT LAMPO DCT GUNGO DCT SAFFA DCT ELMUR L613 HOC/N0438F370 DCT MOROK/N0439F350 DCT PENDU DCT JAVVU DCT DJL |
| Aircraft | B738/M-SDFGHIJ1RWXY/LB1 |
Departure
| Time | 2026-04-24 16:42 |
|---|---|
| Airport | Mykonos Island National Airport (LGMK) |
Arrival
| Time | N/A |
|---|---|
| Airport | Paris-Orly Airport (LFPO) |
| Time | Latitude | Longitude | Altitude | Speed | Heading |
|---|---|---|---|---|---|
| 2026-04-24 16:20 | 37.43544 | 25.34632 | 406 ft | 0 kts | 251° |
| 2026-04-24 16:28 | 37.43544 | 25.34633 | 406 ft | 0 kts | 251° |
| 2026-04-24 16:35 | 37.43545 | 25.34634 | 406 ft | 2 kts | 251° |
| 2026-04-24 16:35 | 37.43555 | 25.34661 | 404 ft | 4 kts | 225° |
| 2026-04-24 16:35 | 37.43576 | 25.34676 | 406 ft | 4 kts | 179° |
| 2026-04-24 16:36 | 37.43596 | 25.34672 | 407 ft | 0 kts | 161° |
| 2026-04-24 16:38 | 37.43578 | 25.34680 | 406 ft | 8 kts | 161° |
| 2026-04-24 16:39 | 37.43498 | 25.34715 | 407 ft | 14 kts | 161° |
| 2026-04-24 16:39 | 37.43422 | 25.34765 | 407 ft | 12 kts | 126° |
| 2026-04-24 16:39 | 37.43388 | 25.34856 | 408 ft | 13 kts | 122° |
| 2026-04-24 16:39 | 37.43288 | 25.34922 | 412 ft | 18 kts | 160° |
| 2026-04-24 16:40 | 37.43172 | 25.34976 | 411 ft | 17 kts | 159° |
| 2026-04-24 16:40 | 37.43065 | 25.35025 | 411 ft | 16 kts | 161° |
| 2026-04-24 16:40 | 37.42954 | 25.35072 | 411 ft | 17 kts | 161° |
| 2026-04-24 16:40 | 37.42846 | 25.35119 | 411 ft | 16 kts | 160° |
| 2026-04-24 16:41 | 37.42766 | 25.35180 | 409 ft | 12 kts | 139° |
| 2026-04-24 16:41 | 37.42721 | 25.35168 | 409 ft | 5 kts | 268° |
| 2026-04-24 16:41 | 37.42749 | 25.35152 | 409 ft | 5 kts | 356° |
| 2026-04-24 16:41 | 37.42828 | 25.35125 | 410 ft | 37 kts | 341° |
| 2026-04-24 16:42 | 37.43359 | 25.34890 | 411 ft | 121 kts | 340° |
| 2026-04-24 16:42 | 37.44314 | 25.34461 | 817 ft | 159 kts | 341° |
| 2026-04-24 16:42 | 37.45281 | 25.33865 | 2037 ft | 152 kts | 332° |
| 2026-04-24 16:42 | 37.46162 | 25.32915 | 2575 ft | 192 kts | 306° |
| 2026-04-24 16:43 | 37.46385 | 25.31110 | 2856 ft | 234 kts | 261° |
| 2026-04-24 16:43 | 37.45923 | 25.29036 | 3234 ft | 255 kts | 265° |
| 2026-04-24 16:43 | 37.45887 | 25.26752 | 3728 ft | 269 kts | 276° |